createdAt,value
2019-03-02T00:01:45.815Z,24.77
2019-03-02T00:04:13.811Z,24.73
2019-03-02T00:06:41.702Z,23.63
2019-03-02T00:09:09.651Z,23.97
2019-03-02T00:11:37.901Z,25.00
2019-03-02T00:14:06.748Z,23.93
2019-03-02T00:16:34.789Z,25.10
2019-03-02T00:19:06.329Z,26.43
2019-03-02T00:21:32.875Z,25.20
2019-03-02T00:24:00.967Z,23.77
2019-03-02T00:26:28.836Z,24.67
2019-03-02T00:28:57.180Z,27.00
2019-03-02T00:31:25.281Z,25.70
2019-03-02T00:33:56.566Z,25.63
2019-03-02T00:36:23.542Z,25.20
2019-03-02T00:38:51.787Z,24.97
2019-03-02T00:41:19.905Z,25.97
2019-03-02T00:43:48.855Z,26.17
2019-03-02T00:46:16.935Z,24.53
2019-03-02T00:48:46.940Z,25.33
2019-03-02T00:51:14.662Z,26.00
2019-03-02T00:53:43.042Z,27.50
2019-03-02T00:56:10.947Z,25.07
2019-03-02T00:58:39.526Z,25.03
2019-03-02T01:01:07.691Z,25.27
2019-03-02T01:03:36.367Z,25.67
2019-03-02T01:06:04.476Z,24.50
2019-03-02T01:08:35.051Z,25.13
2019-03-02T01:11:03.665Z,27.20
2019-03-02T01:13:32.399Z,26.83
2019-03-02T01:16:00.400Z,26.33
2019-03-02T01:18:28.420Z,24.97
2019-03-02T01:20:56.388Z,26.40
2019-03-02T01:23:27.541Z,24.10
2019-03-02T01:25:54.178Z,24.83
2019-03-02T01:28:22.544Z,26.07
2019-03-02T01:30:51.035Z,25.27
2019-03-02T01:33:19.107Z,24.03
2019-03-02T01:35:47.464Z,24.93
2019-03-02T01:38:15.658Z,26.73
2019-03-02T01:40:45.371Z,26.80
2019-03-02T01:43:13.315Z,26.40
2019-03-02T01:45:41.575Z,25.53
2019-03-02T01:48:27.913Z,26.70
2019-03-02T01:51:01.018Z,25.83
2019-03-02T01:53:38.129Z,25.07
2019-03-02T01:56:37.778Z,24.47
2019-03-02T01:59:20.396Z,25.03
2019-03-02T02:02:09.077Z,25.57
2019-03-02T02:05:04.459Z,25.23
2019-03-02T02:08:19.878Z,24.60
2019-03-02T02:11:28.805Z,24.03
2019-03-02T02:14:06.899Z,24.80
2019-03-02T02:16:41.887Z,26.83
2019-03-02T02:19:10.792Z,25.80
2019-03-02T02:21:47.408Z,25.63
2019-03-02T02:24:25.762Z,26.67
2019-03-02T02:27:54.842Z,26.97
2019-03-02T02:30:51.253Z,26.13
2019-03-02T02:33:19.190Z,26.13
2019-03-02T02:36:04.893Z,26.80
2019-03-02T02:38:34.074Z,25.37
2019-03-02T02:41:30.078Z,25.60
2019-03-02T02:43:58.923Z,27.40
2019-03-02T02:46:32.482Z,31.73
2019-03-02T02:48:57.514Z,30.63
2019-03-02T02:51:25.948Z,28.93
2019-03-02T02:53:53.914Z,28.73
2019-03-02T02:56:21.892Z,29.13
2019-03-02T02:58:55.707Z,27.67
2019-03-02T03:01:19.786Z,28.00
2019-03-02T03:03:47.718Z,29.73
2019-03-02T03:06:15.662Z,29.17
2019-03-02T03:08:44.899Z,28.37
2019-03-02T03:11:13.217Z,28.07
2019-03-02T03:13:42.060Z,29.33
2019-03-02T03:16:11.523Z,29.27
2019-03-02T03:18:40.943Z,31.67
2019-03-02T03:21:08.896Z,30.70
2019-03-02T03:23:36.883Z,31.47
2019-03-02T03:26:04.931Z,31.67
2019-03-02T03:28:32.974Z,29.60
2019-03-02T03:31:01.008Z,31.13
2019-03-02T03:33:41.417Z,31.27
2019-03-02T03:35:59.464Z,30.93
2019-03-02T03:38:29.295Z,32.47
2019-03-02T03:41:00.223Z,33.17
2019-03-02T03:43:27.799Z,31.47
2019-03-02T03:45:55.840Z,32.67
2019-03-02T03:48:23.928Z,31.20
2019-03-02T03:50:52.953Z,31.60
2019-03-02T03:53:26.606Z,31.47
2019-03-02T03:55:52.291Z,31.63
2019-03-02T03:58:20.163Z,32.53
2019-03-02T04:00:48.419Z,31.37
2019-03-02T04:03:16.714Z,31.23
2019-03-02T04:05:47.157Z,31.00
2019-03-02T04:08:14.766Z,31.00
2019-03-02T04:10:42.663Z,30.87
2019-03-02T04:13:10.729Z,32.77
2019-03-02T04:15:41.603Z,32.23
2019-03-02T04:18:55.271Z,31.53
2019-03-02T04:21:23.438Z,32.37
2019-03-02T04:23:56.288Z,30.67
2019-03-02T04:26:21.312Z,32.07
2019-03-02T04:28:49.322Z,32.63
2019-03-02T04:31:17.355Z,31.30
2019-03-02T04:33:45.262Z,32.10
2019-03-02T04:36:13.278Z,29.80
2019-03-02T04:38:41.234Z,29.53
2019-03-02T04:41:09.117Z,31.70
2019-03-02T04:43:37.190Z,31.30
2019-03-02T04:46:05.280Z,30.00
2019-03-02T04:48:35.809Z,29.90
2019-03-02T04:51:03.515Z,32.30
2019-03-02T04:53:31.531Z,32.20
2019-03-02T04:55:59.465Z,31.07
2019-03-02T04:58:27.436Z,31.50
2019-03-02T05:00:55.349Z,32.23
2019-03-02T05:03:23.307Z,31.37
2019-03-02T05:05:51.308Z,31.77
2019-03-02T05:08:19.175Z,30.73
2019-03-02T05:10:47.447Z,32.47
2019-03-02T05:13:15.402Z,29.63
2019-03-02T05:15:43.322Z,30.50
2019-03-02T05:18:14.795Z,30.87
2019-03-02T05:20:42.350Z,30.63
2019-03-02T05:23:10.250Z,31.63
2019-03-02T05:25:38.271Z,29.50
2019-03-02T05:28:07.357Z,29.50
2019-03-02T05:30:35.999Z,29.40
2019-03-02T05:33:04.144Z,29.17
2019-03-02T05:35:32.050Z,30.47
2019-03-02T05:38:00.041Z,30.13
2019-03-02T05:40:28.837Z,29.77
2019-03-02T05:42:56.759Z,31.40
2019-03-02T05:45:25.098Z,33.30
2019-03-02T05:47:53.071Z,34.07
2019-03-02T05:50:21.050Z,33.07
2019-03-02T05:52:50.822Z,32.83
2019-03-02T05:55:19.121Z,32.93
2019-03-02T05:57:47.170Z,31.37
2019-03-02T06:00:17.287Z,31.20
2019-03-02T06:02:45.446Z,32.47
2019-03-02T06:05:13.451Z,32.23
2019-03-02T06:07:41.493Z,30.87
2019-03-02T06:10:09.552Z,33.17
2019-03-02T06:12:37.419Z,31.47
2019-03-02T06:15:07.695Z,30.70
2019-03-02T06:17:36.065Z,29.87
2019-03-02T06:20:04.565Z,30.60
2019-03-02T06:22:32.789Z,31.13
2019-03-02T06:25:00.687Z,31.97
2019-03-02T06:27:28.607Z,30.97
2019-03-02T06:29:56.525Z,28.93
2019-03-02T06:32:26.033Z,30.77
2019-03-02T06:34:55.876Z,31.50
2019-03-02T06:37:24.615Z,30.57
2019-03-02T06:39:52.474Z,30.07
2019-03-02T06:42:20.362Z,31.77
2019-03-02T06:44:48.398Z,33.10
2019-03-02T06:47:16.352Z,34.70
2019-03-02T06:49:44.315Z,35.27
2019-03-02T06:52:12.613Z,53.43
2019-03-02T06:54:40.470Z,52.77
2019-03-02T06:57:10.658Z,54.87
2019-03-02T06:59:39.301Z,81.73
2019-03-02T07:02:08.059Z,88.00
2019-03-02T07:04:35.968Z,69.10
2019-03-02T07:07:03.918Z,65.70
2019-03-02T07:09:31.775Z,79.67
2019-03-02T07:11:59.842Z,56.33
2019-03-02T07:14:48.815Z,42.73
2019-03-02T07:17:27.611Z,35.90
2019-03-02T07:19:59.489Z,37.67
2019-03-02T07:22:27.371Z,35.73
2019-03-02T07:24:55.330Z,35.07
2019-03-02T07:27:26.391Z,36.17
2019-03-02T07:29:53.590Z,36.17
2019-03-02T07:32:21.765Z,31.50
2019-03-02T07:34:49.714Z,29.47
2019-03-02T07:37:17.619Z,30.07
2019-03-02T07:39:45.521Z,30.17
2019-03-02T07:42:13.442Z,31.43
2019-03-02T07:44:41.383Z,34.97
2019-03-02T07:47:09.392Z,38.27
2019-03-02T07:49:37.274Z,39.17
2019-03-02T07:52:05.256Z,40.07
2019-03-02T07:54:33.139Z,38.07
2019-03-02T07:57:01.014Z,39.83
2019-03-02T07:59:29.587Z,40.30
2019-03-02T08:01:58.458Z,40.33
2019-03-02T08:04:26.378Z,38.50
2019-03-02T08:06:54.304Z,36.30
2019-03-02T08:09:25.810Z,37.10
2019-03-02T08:11:52.014Z,38.33
2019-03-02T08:14:28.905Z,37.33
2019-03-02T08:16:56.902Z,37.67
2019-03-02T08:19:24.911Z,38.00
2019-03-02T08:21:52.850Z,38.53
2019-03-02T08:24:20.765Z,39.07
2019-03-02T08:26:48.667Z,40.27
2019-03-02T08:29:17.724Z,40.43
2019-03-02T08:31:46.971Z,40.07
2019-03-02T08:34:15.135Z,36.83
2019-03-02T08:36:43.231Z,34.43
2019-03-02T08:39:12.047Z,33.83
2019-03-02T08:41:39.983Z,33.77
2019-03-02T08:44:07.921Z,34.60
2019-03-02T08:46:35.822Z,36.80
2019-03-02T08:49:06.468Z,41.00
2019-03-02T08:51:33.802Z,37.97
2019-03-02T08:54:01.693Z,36.70
2019-03-02T08:56:29.728Z,36.60
2019-03-02T08:58:57.968Z,73.33
2019-03-02T09:01:27.252Z,89.03
2019-03-02T09:03:55.109Z,109.90
2019-03-02T09:06:23.163Z,105.17
2019-03-02T09:08:51.183Z,99.63
2019-03-02T09:11:27.309Z,89.07
2019-03-02T09:13:55.309Z,79.17
2019-03-02T09:16:23.151Z,69.70
2019-03-02T09:18:51.019Z,67.93
2019-03-02T09:21:18.959Z,69.13
2019-03-02T09:23:46.877Z,63.33
2019-03-02T09:26:15.239Z,64.20
2019-03-02T09:28:43.105Z,61.17
2019-03-02T09:31:11.016Z,62.20
2019-03-02T09:33:39.046Z,66.70
2019-03-02T09:36:07.227Z,78.30
2019-03-02T09:38:35.150Z,77.43
2019-03-02T09:41:03.187Z,90.73
2019-03-02T09:43:31.178Z,94.93
2019-03-02T09:45:59.158Z,96.70
2019-03-02T09:48:27.165Z,105.37
2019-03-02T09:50:55.167Z,91.60
2019-03-02T09:53:23.220Z,86.10
2019-03-02T09:55:51.972Z,82.43
2019-03-02T09:58:24.267Z,78.33
2019-03-02T10:00:50.806Z,72.40
2019-03-02T10:03:18.758Z,76.10
2019-03-02T10:05:49.718Z,78.60
2019-03-02T10:08:16.373Z,77.63
2019-03-02T10:10:44.491Z,74.13
2019-03-02T10:13:12.520Z,80.67
2019-03-02T10:15:40.424Z,81.57
2019-03-02T10:18:10.563Z,79.57
2019-03-02T10:20:38.914Z,80.83
2019-03-02T10:23:07.910Z,84.27
2019-03-02T10:25:35.964Z,79.10
2019-03-02T10:28:04.945Z,80.37
2019-03-02T10:30:33.085Z,82.77
2019-03-02T10:33:01.309Z,92.30
2019-03-02T10:35:29.543Z,85.83
2019-03-02T10:37:57.490Z,81.03
2019-03-02T10:40:25.723Z,87.77
2019-03-02T10:42:53.516Z,93.33
2019-03-02T10:45:21.923Z,96.57
2019-03-02T10:47:49.965Z,109.53
2019-03-02T10:50:22.926Z,116.17
2019-03-02T10:52:49.954Z,123.63
2019-03-02T10:55:18.938Z,118.57
2019-03-02T10:57:47.209Z,114.80
2019-03-02T11:00:20.670Z,105.93
2019-03-02T11:02:51.921Z,98.27
2019-03-02T11:05:40.549Z,89.20
2019-03-02T11:08:17.391Z,95.73
2019-03-02T11:11:03.425Z,87.33
2019-03-02T11:13:54.972Z,88.13
2019-03-02T11:16:44.554Z,80.93
2019-03-02T11:19:25.120Z,79.40
2019-03-02T11:22:16.436Z,81.60
2019-03-02T11:25:00.569Z,70.97
2019-03-02T11:27:49.616Z,67.93
2019-03-02T11:30:35.654Z,63.40
2019-03-02T11:33:23.657Z,62.37
2019-03-02T11:36:13.879Z,66.13
2019-03-02T11:38:59.239Z,61.87
2019-03-02T11:42:05.116Z,63.10
2019-03-02T11:44:58.112Z,55.23
2019-03-02T11:47:45.547Z,56.30
2019-03-02T11:50:32.932Z,52.60
2019-03-02T11:53:12.811Z,50.70
2019-03-02T11:56:24.340Z,46.20
2019-03-02T11:59:15.768Z,38.17
2019-03-02T12:02:01.292Z,28.37
2019-03-02T12:04:54.755Z,25.33
2019-03-02T12:07:51.176Z,26.10
2019-03-02T12:10:43.068Z,28.20
2019-03-02T12:13:31.186Z,27.13
2019-03-02T12:16:22.173Z,28.17
2019-03-02T12:19:17.856Z,26.87
2019-03-02T12:22:22.991Z,27.93
2019-03-02T12:25:10.649Z,28.63
2019-03-02T12:27:59.282Z,25.50
2019-03-02T12:30:46.641Z,26.33
2019-03-02T12:33:49.394Z,28.43
2019-03-02T12:36:33.033Z,28.43
2019-03-02T12:39:27.095Z,33.53
2019-03-02T12:42:17.305Z,29.87
2019-03-02T12:45:02.522Z,30.00
2019-03-02T12:47:54.889Z,27.70
2019-03-02T12:50:58.613Z,29.27
2019-03-02T12:53:46.876Z,27.67
2019-03-02T12:56:34.332Z,28.77
2019-03-02T12:59:21.770Z,27.47
2019-03-02T13:02:10.088Z,30.13
2019-03-02T13:05:04.442Z,30.87
2019-03-02T13:07:47.089Z,33.30
2019-03-02T13:10:31.443Z,33.43
2019-03-02T13:13:10.144Z,29.60
2019-03-02T13:16:16.148Z,27.47
2019-03-02T13:19:06.907Z,29.00
2019-03-02T13:21:50.139Z,29.10
2019-03-02T13:24:32.033Z,27.50
2019-03-02T13:27:21.590Z,27.27
2019-03-02T13:30:09.518Z,27.83
2019-03-02T13:32:57.269Z,27.37
2019-03-02T13:35:59.834Z,27.87
2019-03-02T13:38:29.930Z,26.77
2019-03-02T13:41:12.399Z,26.97
2019-03-02T13:43:57.204Z,26.27
2019-03-02T13:46:42.870Z,27.20
2019-03-02T13:49:24.071Z,29.43
2019-03-02T13:52:10.258Z,28.30
2019-03-02T13:55:14.416Z,28.33
2019-03-02T13:58:01.052Z,30.37
2019-03-02T14:00:54.483Z,29.90
2019-03-02T14:03:51.159Z,40.00
2019-03-02T14:06:37.701Z,29.80
2019-03-02T14:09:16.140Z,30.77
2019-03-02T14:11:55.568Z,27.43
2019-03-02T14:14:55.508Z,28.40
2019-03-02T14:17:52.504Z,31.67
2019-03-02T14:20:43.199Z,29.53
2019-03-02T14:23:26.387Z,27.13
2019-03-02T14:26:06.773Z,26.67
2019-03-02T14:28:57.280Z,26.30
2019-03-02T14:31:47.394Z,27.47
2019-03-02T14:34:40.377Z,28.80
2019-03-02T14:37:30.222Z,34.03
2019-03-02T14:40:34.299Z,32.23
2019-03-02T14:43:40.251Z,34.10
2019-03-02T14:46:28.460Z,33.90
2019-03-02T14:49:31.314Z,33.17
2019-03-02T14:52:09.525Z,33.53
2019-03-02T14:54:57.837Z,31.73
2019-03-02T14:57:45.985Z,30.23
2019-03-02T15:00:36.899Z,32.10
2019-03-02T15:03:24.961Z,33.33
2019-03-02T15:06:28.532Z,37.80
2019-03-02T15:09:08.897Z,37.00
2019-03-02T15:11:49.896Z,35.47
2019-03-02T15:14:48.162Z,33.97
2019-03-02T15:17:34.596Z,29.90
2019-03-02T15:20:17.517Z,32.70
2019-03-02T15:23:00.530Z,29.77
2019-03-02T15:25:43.112Z,27.90
2019-03-02T15:28:29.300Z,30.00
2019-03-02T15:31:06.568Z,28.47
2019-03-02T15:33:58.675Z,26.73
2019-03-02T15:36:49.169Z,27.00
2019-03-02T15:39:39.495Z,28.10
2019-03-02T15:42:21.331Z,25.13
2019-03-02T15:45:02.665Z,23.60
2019-03-02T15:47:39.161Z,24.67
2019-03-02T15:50:20.220Z,24.37
2019-03-02T15:53:07.838Z,24.93
2019-03-02T15:55:49.967Z,22.57
2019-03-02T15:58:46.755Z,48.13
2019-03-02T16:01:29.562Z,28.73
2019-03-02T16:04:22.395Z,23.77
2019-03-02T16:07:22.667Z,34.77
2019-03-02T16:10:05.647Z,24.30
2019-03-02T16:12:52.023Z,39.40
2019-03-02T16:16:01.720Z,32.37
2019-03-02T16:19:01.127Z,26.07
2019-03-02T16:21:47.688Z,23.13
2019-03-02T16:24:23.826Z,25.60
2019-03-02T16:27:18.907Z,23.80
2019-03-02T16:30:05.407Z,23.03
2019-03-02T16:32:55.325Z,24.97
2019-03-02T16:35:44.705Z,20.87
2019-03-02T16:38:31.817Z,24.03
2019-03-02T16:41:19.778Z,24.43
2019-03-02T16:44:16.702Z,26.47
2019-03-02T16:47:11.288Z,24.13
2019-03-02T16:49:59.151Z,22.53
2019-03-02T16:52:44.311Z,21.10
2019-03-02T16:55:24.342Z,20.90
2019-03-02T16:58:03.927Z,21.83
2019-03-02T17:00:48.496Z,22.23
2019-03-02T17:03:35.236Z,21.10
2019-03-02T17:06:28.887Z,24.37
2019-03-02T17:09:16.111Z,24.87
2019-03-02T17:11:53.466Z,28.10
2019-03-02T17:14:49.575Z,33.63
2019-03-02T17:17:49.375Z,41.83
2019-03-02T17:20:47.759Z,43.63
2019-03-02T17:23:42.953Z,51.73
2019-03-02T17:26:17.226Z,55.77
2019-03-02T17:29:01.175Z,56.13
2019-03-02T17:31:49.114Z,84.50
2019-03-02T17:34:49.079Z,100.37
2019-03-02T17:37:48.878Z,74.40
2019-03-02T17:40:42.303Z,59.73
2019-03-02T17:43:24.389Z,55.27
2019-03-02T17:46:07.552Z,51.10
2019-03-02T17:49:04.119Z,48.03
2019-03-02T17:51:46.446Z,42.07
2019-03-02T17:54:27.507Z,38.47
2019-03-02T17:57:24.737Z,35.70
2019-03-02T18:00:11.083Z,38.93
2019-03-02T18:03:05.403Z,36.27
2019-03-02T18:06:02.938Z,32.53
2019-03-02T18:08:48.546Z,35.03
2019-03-02T18:11:30.827Z,34.57
2019-03-02T18:14:20.122Z,28.80
2019-03-02T18:17:34.270Z,28.50
2019-03-02T18:20:03.051Z,22.13
2019-03-02T18:22:32.143Z,21.33
2019-03-02T18:25:00.894Z,26.73
2019-03-02T18:27:33.325Z,24.87
2019-03-02T18:30:02.301Z,24.80
2019-03-02T18:32:34.104Z,25.67
2019-03-02T18:35:02.820Z,26.10
2019-03-02T18:37:31.961Z,24.00
2019-03-02T18:40:02.561Z,24.57
2019-03-02T18:44:14.032Z,21.30
2019-03-02T18:46:42.739Z,23.30
2019-03-02T18:49:29.294Z,24.13
2019-03-02T18:52:26.503Z,21.87
2019-03-02T18:54:55.455Z,18.40
2019-03-02T18:57:24.133Z,19.30
2019-03-02T18:59:52.760Z,20.33
2019-03-02T19:02:21.702Z,20.87
2019-03-02T19:04:50.987Z,20.07
2019-03-02T19:07:20.263Z,19.63
2019-03-02T19:09:49.031Z,18.50
2019-03-02T19:12:17.845Z,18.50
2019-03-02T19:15:13.724Z,18.10
2019-03-02T19:17:46.141Z,18.40
2019-03-02T19:20:15.202Z,19.60
2019-03-02T19:22:45.682Z,19.73
2019-03-02T19:25:15.993Z,20.60
2019-03-02T19:27:45.118Z,21.10
2019-03-02T19:30:16.148Z,20.37
2019-03-02T19:32:45.558Z,21.17
2019-03-02T19:35:16.406Z,22.40
2019-03-02T19:37:45.874Z,24.13
2019-03-02T19:40:17.629Z,25.87
2019-03-02T19:42:46.865Z,26.67
2019-03-02T19:45:16.406Z,27.50
2019-03-02T19:47:45.520Z,25.47
2019-03-02T19:50:16.491Z,24.37
2019-03-02T19:52:45.294Z,22.43
2019-03-02T19:55:14.944Z,20.70
2019-03-02T19:57:46.799Z,21.87
2019-03-02T20:00:23.570Z,20.50
2019-03-02T20:02:52.712Z,22.10
2019-03-02T20:05:22.026Z,22.67
2019-03-02T20:07:51.228Z,22.37
2019-03-02T20:10:20.579Z,26.80
2019-03-02T20:12:49.712Z,26.93
2019-03-02T20:15:43.515Z,24.73
2019-03-02T20:18:12.647Z,22.93
2019-03-02T20:20:41.602Z,24.63
2019-03-02T20:23:10.631Z,23.13
2019-03-02T20:25:39.550Z,25.43
2019-03-02T20:28:09.146Z,25.83
2019-03-02T20:30:39.231Z,25.90
2019-03-02T20:33:07.966Z,23.23
2019-03-02T20:35:37.159Z,24.60
2019-03-02T20:38:06.159Z,31.83
2019-03-02T20:40:35.723Z,32.77
2019-03-02T20:43:04.949Z,28.63
2019-03-02T20:45:33.932Z,25.10
2019-03-02T20:48:02.831Z,25.40
2019-03-02T20:50:31.683Z,21.00
2019-03-02T20:53:00.822Z,20.90
2019-03-02T20:55:30.432Z,20.43
2019-03-02T20:57:59.246Z,19.57
2019-03-02T21:00:30.470Z,20.17
2019-03-02T21:02:59.592Z,21.00
2019-03-02T21:05:28.627Z,23.37
2019-03-02T21:07:57.443Z,24.47
2019-03-02T21:10:26.881Z,22.53
2019-03-02T21:12:55.734Z,24.77
2019-03-02T21:16:03.270Z,23.93
2019-03-02T21:18:30.427Z,21.07
2019-03-02T21:20:59.216Z,22.53
2019-03-02T21:23:28.006Z,22.70
2019-03-02T21:26:22.773Z,24.53
2019-03-02T21:28:51.270Z,24.93
2019-03-02T21:31:20.017Z,25.77
2019-03-02T21:33:48.743Z,59.07
2019-03-02T21:36:22.218Z,87.37
2019-03-02T21:38:51.360Z,67.90
2019-03-02T21:41:19.551Z,45.00
2019-03-02T21:43:47.932Z,27.33
2019-03-02T21:46:16.223Z,22.53
2019-03-02T21:48:44.998Z,20.77
2019-03-02T21:51:16.586Z,20.90
2019-03-02T21:53:45.816Z,20.10
2019-03-02T21:56:13.900Z,21.33
2019-03-02T21:58:42.699Z,20.20
2019-03-02T22:01:10.643Z,22.40
2019-03-02T22:03:38.661Z,22.13
2019-03-02T22:06:06.709Z,19.97
2019-03-02T22:08:36.088Z,19.90
2019-03-02T22:11:06.975Z,20.53
2019-03-02T22:13:35.147Z,22.37
2019-03-02T22:16:35.339Z,27.07
2019-03-02T22:19:02.574Z,25.63
2019-03-02T22:21:30.690Z,22.83
2019-03-02T22:23:58.470Z,21.10
2019-03-02T22:26:26.356Z,21.20
2019-03-02T22:28:55.398Z,22.07
2019-03-02T22:31:23.361Z,20.73
2019-03-02T22:33:51.442Z,21.30
2019-03-02T22:36:19.327Z,21.80
2019-03-02T22:38:47.345Z,22.00
2019-03-02T22:41:15.302Z,21.47
2019-03-02T22:43:43.292Z,21.63
2019-03-02T22:46:11.249Z,23.30
2019-03-02T22:48:39.415Z,22.50
2019-03-02T22:51:07.414Z,24.67
2019-03-02T22:53:35.460Z,21.13
2019-03-02T22:56:03.511Z,18.83
2019-03-02T22:58:30.987Z,17.33
2019-03-02T23:01:46.294Z,17.77
2019-03-02T23:04:14.328Z,18.40
2019-03-02T23:06:42.353Z,18.00
2019-03-02T23:09:11.569Z,17.07
2019-03-02T23:11:39.561Z,16.97
2019-03-02T23:14:07.837Z,18.20
2019-03-02T23:16:35.716Z,17.43
2019-03-02T23:19:03.683Z,16.73
2019-03-02T23:21:31.752Z,17.00
2019-03-02T23:23:59.637Z,17.17
2019-03-02T23:26:27.508Z,19.53
2019-03-02T23:28:55.539Z,18.30
2019-03-02T23:31:23.470Z,17.13
2019-03-02T23:33:51.383Z,17.03
2019-03-02T23:36:19.226Z,16.50
2019-03-02T23:38:47.211Z,16.33
2019-03-02T23:41:16.572Z,15.77
2019-03-02T23:43:44.732Z,16.13
2019-03-02T23:46:12.701Z,15.20
2019-03-02T23:48:40.518Z,15.67
2019-03-02T23:51:08.402Z,15.70
2019-03-02T23:53:36.390Z,15.33
2019-03-02T23:56:04.566Z,15.50
2019-03-02T23:58:32.471Z,15.20
